Terminal Aerodrome Forecast
Issued by NWS Paducah, KY

Home | Current Version | Previous Version | Text Only | Print | Product List | Glossary On
Versions: 1 2 3 4 5 6 7 8 9 10 11 12 13 14 15 16 17 18 19 20 21
000
FTUS43 KPAH 191100
TAFEVV
TAF
KEVV 191130Z 1912/2012 00000KT P6SM SKC
     FM191500 21004KT P6SM FEW025 SCT250
     FM192300 17003KT P6SM BKN250
     FM200800 21003KT P6SM BKN120=

USA.gov is the U.S. government's official web portal to all federal, state and local government web resources and services.